Time;durP1;ratioP1;P1;durP2;ratioP2;P2;SDS_P1;SDS_P2;PMS_P1;PMS_P2;Temp;Humidity;BMP_temperature;BMP_pressure;BME280_temperature;BME280_humidity;BME280_pressure;Samples;Min_cycle;Max_cycle;Signal;HPM_P1;HPM_P2
2022/03/03 00:01:53;;;;;;;;;73.00;57.25;;;;;9.03;59.61;100928.16;5015569;28;45497;-78
2022/03/03 00:04:19;;;;;;;;;78.50;61.00;;;;;9.04;59.45;100935.16;5014753;28;45474;-78
2022/03/03 00:06:45;;;;;;;;;59.75;53.00;;;;;9.00;59.71;100933.47;5014993;28;45395;-79
2022/03/03 00:09:10;;;;;;;;;71.50;55.25;;;;;9.03;59.97;100925.53;5014593;28;45384;-79
2022/03/03 00:11:36;;;;;;;;;57.25;48.25;;;;;9.05;59.61;100933.44;5015826;28;45364;-78
2022/03/03 00:14:01;;;;;;;;;76.50;58.75;;;;;9.03;59.28;100929.91;5014657;28;45354;-79
2022/03/03 00:16:27;;;;;;;;;76.50;62.00;;;;;8.95;59.69;100924.69;5015585;28;45322;-78
2022/03/03 00:18:52;;;;;;;;;71.75;56.00;;;;;8.96;59.73;100920.28;5014916;28;45332;-79
2022/03/03 00:21:18;;;;;;;;;76.00;61.00;;;;;8.96;59.97;100923.81;5047354;28;45433;-79
2022/03/03 00:23:44;;;;;;;;;71.00;57.75;;;;;8.96;59.70;100921.19;5018125;28;45380;-78
2022/03/03 00:26:09;;;;;;;;;66.50;54.50;;;;;8.94;60.11;100922.94;5023311;28;45394;-80
2022/03/03 00:28:35;;;;;;;;;74.50;58.00;;;;;8.92;60.04;100916.81;5031550;28;45395;-80
2022/03/03 00:31:00;;;;;;;;;70.00;57.50;;;;;8.92;60.04;100924.72;5015376;28;45481;-79
2022/03/03 00:33:26;;;;;;;;;74.50;55.50;;;;;8.93;60.27;100936.13;5014627;28;45460;-80
2022/03/03 00:35:51;;;;;;;;;74.00;57.75;;;;;8.88;59.64;100929.16;5014457;28;45368;-79
2022/03/03 00:38:17;;;;;;;;;72.00;58.75;;;;;8.90;60.20;100934.41;5046524;28;45400;-79
2022/03/03 00:40:42;;;;;;;;;63.50;55.00;;;;;8.87;60.12;100931.81;5014615;28;45657;-78
2022/03/03 00:43:08;;;;;;;;;66.50;53.50;;;;;8.89;60.44;100935.28;5013677;28;45519;-79
2022/03/03 00:45:34;;;;;;;;;71.75;54.00;;;;;8.86;60.63;100930.03;5014626;28;45416;-80
2022/03/03 00:48:00;;;;;;;;;73.50;57.25;;;;;8.86;60.42;100940.59;5014001;28;45320;-80
2022/03/03 00:50:26;;;;;;;;;68.00;56.50;;;;;8.84;60.88;100937.09;5014771;28;45514;-79
2022/03/03 00:52:51;;;;;;;;;70.00;55.00;;;;;8.85;60.59;100933.56;5014182;28;46113;-79
2022/03/03 00:55:16;;;;;;;;;71.50;57.00;;;;;8.81;60.51;100938.00;5015227;28;45470;-79
2022/03/03 00:57:42;;;;;;;;;73.00;57.00;;;;;8.79;60.30;100941.50;5016702;28;45333;-78
2022/03/03 01:00:09;;;;;;;;;70.25;53.50;;;;;8.79;61.14;100938.88;5018803;28;45431;-78
2022/03/03 01:02:34;;;;;;;;;70.25;53.50;;;;;8.78;61.00;100938.00;5015989;28;45509;-78
2022/03/03 01:05:00;;;;;;;;;71.00;51.75;;;;;8.76;61.14;100933.63;5014495;28;45378;-77
2022/03/03 01:07:25;;;;;;;;;72.00;59.00;;;;;8.78;60.99;100931.88;5014856;28;45586;-79
2022/03/03 01:09:51;;;;;;;;;74.75;61.00;;;;;8.79;60.68;100937.13;5014169;28;45448;-78
2022/03/03 01:12:16;;;;;;;;;68.00;57.00;;;;;8.77;60.99;100935.38;5014249;28;46120;-79
2022/03/03 01:14:41;;;;;;;;;74.00;55.50;;;;;8.77;60.43;100933.63;5045798;28;45454;-79
2022/03/03 01:17:07;;;;;;;;;70.50;54.25;;;;;8.75;60.37;100934.53;5013755;28;45431;-78
2022/03/03 01:19:33;;;;;;;;;80.00;62.25;;;;;8.78;60.25;100932.75;5014149;28;45431;-79
2022/03/03 01:21:58;;;;;;;;;71.25;56.00;;;;;8.77;61.00;100930.13;5017675;28;46026;-79
2022/03/03 01:24:24;;;;;;;;;71.25;57.50;;;;;8.70;60.16;100919.63;5018542;28;45448;-79
2022/03/03 01:26:49;;;;;;;;;69.25;53.75;;;;;8.78;61.00;100937.16;5018869;28;45424;-79
2022/03/03 01:29:14;;;;;;;;;70.25;55.25;;;;;8.78;60.23;100931.88;5021434;28;45433;-77
2022/03/03 01:31:40;;;;;;;;;69.75;56.50;;;;;8.76;60.41;100929.25;5021122;28;45372;-79
2022/03/03 01:34:08;;;;;;;;;73.00;53.00;;;;;8.81;61.51;100922.16;5018425;28;45423;-79
2022/03/03 01:36:34;;;;;;;;;68.50;57.00;;;;;8.79;61.68;100920.44;5017502;28;45482;-78
2022/03/03 01:39:00;;;;;;;;;65.75;55.50;;;;;8.80;61.03;100919.56;5017337;28;45391;-79
2022/03/03 01:41:26;;;;;;;;;56.50;47.75;;;;;8.77;61.38;100911.66;5015797;28;48250;-78
2022/03/03 01:43:51;;;;;;;;;62.25;53.00;;;;;8.79;61.70;100920.44;5016390;28;45480;-79
2022/03/03 01:46:17;;;;;;;;;67.50;55.00;;;;;8.76;61.49;100912.53;5049161;28;45454;-80
2022/03/03 01:48:43;;;;;;;;;67.50;53.00;;;;;8.77;61.06;100911.66;5017355;28;45581;-79
2022/03/03 01:51:09;;;;;;;;;70.25;57.25;;;;;8.80;61.21;100914.28;5017200;28;46150;-79
2022/03/03 01:53:35;;;;;;;;;64.00;54.00;;;;;8.79;61.83;100912.50;5017466;28;45488;-80
2022/03/03 01:56:01;;;;;;;;;67.75;49.00;;;;;8.76;61.74;100902.91;5017482;28;45478;-79
2022/03/03 01:58:28;;;;;;;;;62.75;50.75;;;;;8.78;61.81;100895.84;5017358;28;45448;-78
2022/03/03 02:00:53;;;;;;;;;66.75;53.00;;;;;8.80;61.77;100901.09;5021008;28;46229;-78
2022/03/03 02:03:19;;;;;;;;;52.50;47.00;;;;;8.80;62.06;100898.47;5022219;28;45422;-79
2022/03/03 02:05:45;;;;;;;;;65.75;52.50;;;;;8.81;62.08;100901.09;5019539;28;45419;-79
2022/03/03 02:08:10;;;;;;;;;66.25;52.75;;;;;8.83;62.06;100906.34;5018012;28;45459;-79
2022/03/03 02:10:35;;;;;;;;;67.50;54.00;;;;;8.84;62.01;100902.84;5016948;28;45489;-79
2022/03/03 02:13:01;;;;;;;;;62.00;49.00;;;;;8.82;61.53;100900.22;5016940;28;45478;-79
2022/03/03 02:15:26;;;;;;;;;72.75;57.75;;;;;8.81;61.18;100901.09;5016751;28;46152;-79
2022/03/03 02:17:52;;;;;;;;;72.00;56.00;;;;;8.82;61.19;100900.22;5049162;28;45445;-79
2022/03/03 02:20:19;;;;;;;;;59.75;48.00;;;;;8.83;60.77;100898.44;5017189;28;45465;-79
2022/03/03 02:22:45;;;;;;;;;71.25;53.00;;;;;8.77;61.37;100898.47;5017046;28;45386;-79
2022/03/03 02:25:10;;;;;;;;;73.25;60.25;;;;;8.84;60.81;100905.47;5049776;28;45443;-79
2022/03/03 02:27:36;;;;;;;;;68.50;51.25;;;;;8.87;60.68;100900.16;5018512;28;45344;-79
2022/03/03 02:30:02;;;;;;;;;66.75;53.00;;;;;8.84;61.41;100894.94;5018083;28;46190;-79
2022/03/03 02:32:28;;;;;;;;;69.00;54.75;;;;;8.86;61.20;100896.63;5017589;28;45344;-80
2022/03/03 02:34:53;;;;;;;;;69.00;52.50;;;;;8.87;61.61;100900.16;5016632;28;45325;-79
2022/03/03 02:37:18;;;;;;;;;66.50;53.00;;;;;8.87;61.17;100895.75;5017057;28;45328;-79
2022/03/03 02:39:44;;;;;;;;;66.50;53.25;;;;;8.87;61.69;100894.91;5016547;28;46266;-78
2022/03/03 02:42:09;;;;;;;;;64.00;55.00;;;;;8.88;61.64;100888.72;5016765;28;45436;-79
2022/03/03 02:44:35;;;;;;;;;67.25;54.00;;;;;8.92;61.60;100893.09;5016914;28;45423;-80
2022/03/03 02:47:00;;;;;;;;;64.50;51.00;;;;;8.91;62.49;100885.19;5016646;28;45559;-78
2022/03/03 02:49:26;;;;;;;;;74.75;56.00;;;;;8.93;62.49;100883.41;5016025;28;46086;-78
2022/03/03 02:51:52;;;;;;;;;69.00;52.50;;;;;8.94;62.37;100883.41;5017673;28;45403;-79
2022/03/03 02:54:18;;;;;;;;;60.75;53.50;;;;;8.93;62.89;100883.41;5018040;28;45410;-79
2022/03/03 02:59:27;;;;;;;;;57.25;47.50;;;;;8.95;63.18;100876.38;5039685;28;45752;-79
2022/03/03 03:01:52;;;;;;;;;68.25;50.50;;;;;8.94;63.20;100872.84;5043181;28;45384;-79
2022/03/03 03:04:18;;;;;;;;;59.00;46.75;;;;;8.93;63.83;100873.75;5040197;28;45536;-79
2022/03/03 03:06:43;;;;;;;;;69.00;50.50;;;;;8.97;64.30;100870.19;5036754;28;45369;-78
2022/03/03 03:09:09;;;;;;;;;46.50;41.25;;;;;8.95;64.68;100869.34;5035781;28;46048;-78
2022/03/03 03:11:34;;;;;;;;;43.75;41.75;;;;;8.96;64.75;100863.19;5036107;28;45415;-79
2022/03/03 03:13:59;;;;;;;;;51.75;45.00;;;;;8.98;65.26;100860.53;5035052;28;45381;-78
2022/03/03 03:16:25;;;;;;;;;50.00;45.50;;;;;9.00;65.12;100861.38;5036117;28;45369;-79
2022/03/03 03:18:50;;;;;;;;;52.25;45.75;;;;;9.01;65.14;100853.47;5036191;28;45959;-79
2022/03/03 03:21:15;;;;;;;;;46.50;40.75;;;;;9.00;65.47;100842.94;5036549;28;45550;-80
2022/03/03 03:23:41;;;;;;;;;50.50;43.00;;;;;9.04;64.84;100849.94;5036334;28;45906;-79
2022/03/03 03:26:06;;;;;;;;;53.25;45.00;;;;;9.04;65.28;100845.53;5035803;28;45407;-79
2022/03/03 03:28:32;;;;;;;;;62.00;48.25;;;;;9.05;65.29;100841.16;5036254;28;45974;-78
2022/03/03 03:30:57;;;;;;;;;67.25;48.75;;;;;9.03;65.15;100837.63;5036751;28;45411;-77
2022/03/03 03:33:22;;;;;;;;;50.00;46.25;;;;;9.03;66.00;100843.78;5039255;28;45458;-78
2022/03/03 03:35:48;;;;;;;;;46.25;39.50;;;;;9.00;66.08;100833.28;5039758;28;45432;-79
2022/03/03 03:38:13;;;;;;;;;54.75;43.75;;;;;9.06;66.36;100843.75;5031527;28;45403;-78
2022/03/03 03:40:39;;;;;;;;;45.50;38.00;;;;;9.05;66.22;100835.88;5015701;28;45357;-79
2022/03/03 03:43:04;;;;;;;;;53.75;43.00;;;;;9.05;66.94;100835.88;5013243;28;45395;-79
2022/03/03 03:45:31;;;;;;;;;52.25;42.50;;;;;9.03;67.19;100830.59;5015602;28;45320;-79
2022/03/03 03:47:57;;;;;;;;;42.25;30.50;;;;;9.07;67.80;100840.22;5015345;28;45479;-78
2022/03/03 03:50:22;;;;;;;;;50.25;45.00;;;;;9.07;67.04;100832.31;5015665;28;45564;-80
2022/03/03 03:52:48;;;;;;;;;39.25;37.00;;;;;9.11;68.16;100829.63;5030474;28;45450;-80
2022/03/03 03:55:13;;;;;;;;;46.75;39.50;;;;;9.10;67.58;100822.63;5014846;28;45436;-79
2022/03/03 03:57:39;;;;;;;;;40.50;32.00;;;;;9.13;68.47;100817.34;5015413;28;45826;-80
2022/03/03 04:00:09;;;;;;;;;39.00;37.00;;;;;9.15;67.88;100820.81;5015675;28;45553;-79
2022/03/03 04:02:34;;;;;;;;;46.00;38.50;;;;;9.16;68.65;100819.94;5013830;28;45348;-81
2022/03/03 04:05:00;;;;;;;;;39.75;34.00;;;;;9.16;68.43;100819.94;5016996;28;45279;-79
2022/03/03 04:07:25;;;;;;;;;40.25;32.25;;;;;9.12;68.95;100810.31;5021220;28;46219;-79
2022/03/03 04:09:50;;;;;;;;;41.75;35.75;;;;;9.14;68.95;100808.50;5015399;28;45488;-79
2022/03/03 04:12:16;;;;;;;;;38.00;36.75;;;;;9.16;69.43;100812.03;5015208;28;45379;-78
2022/03/03 04:14:41;;;;;;;;;42.75;38.50;;;;;9.14;69.56;100805.88;5014511;28;45386;-79
2022/03/03 04:17:07;;;;;;;;;44.25;38.25;;;;;9.13;68.69;100804.16;5015620;28;45386;-79
2022/03/03 04:19:32;;;;;;;;;45.50;35.50;;;;;9.15;69.64;100794.44;5016253;28;45443;-79
2022/03/03 04:21:57;;;;;;;;;40.50;34.00;;;;;9.15;69.05;100805.00;5017442;28;45395;-79
2022/03/03 04:24:23;;;;;;;;;41.75;38.00;;;;;9.11;69.71;100803.28;5016591;28;45505;-79
2022/03/03 04:26:48;;;;;;;;;40.50;37.00;;;;;9.11;69.60;100803.28;5015149;28;45407;-78
2022/03/03 04:29:14;;;;;;;;;42.75;36.75;;;;;9.10;69.95;100791.00;5014615;28;45530;-78
2022/03/03 04:31:39;;;;;;;;;48.00;37.50;;;;;9.07;70.07;100789.25;5015368;28;45422;-79
2022/03/03 04:34:05;;;;;;;;;40.75;35.75;;;;;9.04;70.06;100791.91;5017272;28;45406;-80
2022/03/03 04:36:30;;;;;;;;;45.00;35.75;;;;;9.03;70.45;100785.78;5023997;28;45371;-79
2022/03/03 04:38:55;;;;;;;;;28.00;20.50;;;;;9.05;70.74;100786.63;5017758;28;45439;-80
2022/03/03 04:41:21;;;;;;;;;44.50;36.75;;;;;9.04;70.75;100781.38;5014792;28;45390;-79
2022/03/03 04:43:47;;;;;;;;;35.50;34.00;;;;;9.03;71.28;100790.16;5014509;28;45339;-79
2022/03/03 04:46:12;;;;;;;;;39.00;33.00;;;;;9.01;71.57;100786.69;5029632;28;46828;-79
2022/03/03 04:48:38;;;;;;;;;35.75;31.00;;;;;8.98;71.82;100774.41;5014337;28;45423;-80
2022/03/03 04:51:03;;;;;;;;;38.75;36.25;;;;;8.97;71.92;100785.81;5014884;28;45853;-78
2022/03/03 04:53:29;;;;;;;;;40.00;33.50;;;;;8.94;72.23;100772.66;5014549;28;45597;-80
2022/03/03 04:55:55;;;;;;;;;40.50;37.50;;;;;8.97;71.84;100775.28;5013902;28;45349;-78
2022/03/03 04:58:21;;;;;;;;;29.25;29.25;;;;;8.95;72.41;100771.78;5013850;28;45691;-79
2022/03/03 05:00:47;;;;;;;;;47.00;39.75;;;;;8.95;73.06;100769.16;5014431;28;45371;-78
2022/03/03 05:03:12;;;;;;;;;41.00;35.75;;;;;8.94;72.66;100764.75;5014451;28;45689;-79
2022/03/03 05:05:37;;;;;;;;;36.00;32.00;;;;;8.93;72.64;100765.66;5016840;28;45374;-79
2022/03/03 05:08:03;;;;;;;;;33.50;27.50;;;;;8.89;73.41;100771.84;5022251;28;45479;-78
2022/03/03 05:10:28;;;;;;;;;34.25;31.75;;;;;8.87;74.12;100766.59;5013605;28;45523;-78
2022/03/03 05:12:54;;;;;;;;;44.50;34.50;;;;;8.93;74.06;100767.41;5014816;28;45554;-79
2022/03/03 05:15:20;;;;;;;;;41.75;36.25;;;;;8.89;74.32;100767.44;5014676;28;45500;-79
2022/03/03 05:17:45;;;;;;;;;32.25;28.75;;;;;8.91;73.90;100769.19;5014937;28;45577;-80
2022/03/03 05:20:12;;;;;;;;;26.00;22.00;;;;;8.89;74.55;100766.59;5014407;28;45478;-79
2022/03/03 05:22:37;;;;;;;;;43.75;36.50;;;;;8.86;73.89;100759.56;5014114;28;45460;-81
2022/03/03 05:25:03;;;;;;;;;39.50;36.50;;;;;8.87;73.87;100768.38;5013958;28;45996;-79
2022/03/03 05:27:28;;;;;;;;;38.75;32.75;;;;;8.86;74.00;100759.56;5013946;28;45450;-79
2022/03/03 05:29:54;;;;;;;;;41.75;34.50;;;;;8.88;73.85;100759.56;5014363;28;45450;-79
2022/03/03 05:32:19;;;;;;;;;42.50;32.50;;;;;8.88;73.65;100760.44;5014224;28;45440;-80
2022/03/03 05:34:45;;;;;;;;;42.25;34.00;;;;;8.89;73.72;100761.31;5014051;28;45827;-79
2022/03/03 05:37:10;;;;;;;;;41.25;40.50;;;;;8.95;73.54;100763.88;5016127;28;45396;-79
2022/03/03 05:39:37;;;;;;;;;41.75;34.00;;;;;8.94;73.53;100754.22;5017459;28;45364;-79
2022/03/03 05:42:03;;;;;;;;;40.50;37.50;;;;;8.97;73.43;100763.88;5014769;28;45423;-79
2022/03/03 05:44:29;;;;;;;;;40.25;35.75;;;;;8.97;73.56;100769.13;5013660;28;46161;-79
2022/03/03 05:46:55;;;;;;;;;36.00;31.50;;;;;8.98;73.10;100771.75;5014206;28;45360;-81
2022/03/03 05:49:22;;;;;;;;;46.25;40.00;;;;;8.97;73.33;100769.13;5016725;28;45536;-80
2022/03/03 05:51:48;;;;;;;;;45.00;41.50;;;;;9.00;73.79;100769.09;5016694;28;45371;-79
2022/03/03 05:54:13;;;;;;;;;42.75;36.50;;;;;8.98;73.65;100776.16;5016833;28;46182;-79
2022/03/03 05:56:45;;;;;;;;;53.25;47.50;;;;;8.98;73.47;100770.91;5014307;28;45453;-80
2022/03/03 05:59:13;;;;;;;;;50.25;45.25;;;;;8.96;74.66;100767.38;5014106;28;45478;-79
2022/03/03 06:01:42;;;;;;;;;51.50;39.50;;;;;9.00;74.30;100785.81;5014557;28;45664;-79
2022/03/03 06:04:12;;;;;;;;;37.75;33.75;;;;;9.00;74.15;100775.28;5021872;28;46150;-79
2022/03/03 06:06:38;;;;;;;;;46.50;35.50;;;;;8.99;74.74;100768.25;5039539;28;45445;-80
2022/03/03 06:09:11;;;;;;;;;38.50;32.50;;;;;9.01;74.89;100760.31;5029262;28;45447;-80
2022/03/03 06:11:52;;;;;;;;;38.75;29.00;;;;;8.99;74.80;100765.59;5024583;28;45337;-79
2022/03/03 06:14:28;;;;;;;;;40.50;35.00;;;;;8.99;75.47;100770.88;5018918;28;45447;-79
2022/03/03 06:16:57;;;;;;;;;34.00;27.25;;;;;8.94;75.20;100759.50;5017417;28;45383;-79
2022/03/03 06:19:23;;;;;;;;;39.25;36.50;;;;;8.89;75.73;100750.75;5017329;28;45415;-79
2022/03/03 06:21:49;;;;;;;;;32.00;28.00;;;;;8.95;75.48;100773.56;4999054;28;45402;-78
2022/03/03 06:24:14;;;;;;;;;54.50;41.50;;;;;8.93;76.71;100777.97;5017297;28;46009;-79
2022/03/03 06:26:40;;;;;;;;;36.75;32.50;;;;;8.89;75.70;100767.44;5016730;28;45451;-79
2022/03/03 06:29:05;;;;;;;;;46.75;41.00;;;;;8.87;76.40;100781.56;5016715;28;45393;-80
2022/03/03 06:31:31;;;;;;;;;35.50;33.75;;;;;8.83;76.63;100771.91;5017618;28;45425;-80
2022/03/03 06:33:56;;;;;;;;;44.50;38.00;;;;;8.87;76.20;100779.78;5017929;28;45925;-80
2022/03/03 06:36:21;;;;;;;;;51.50;39.25;;;;;8.85;76.54;100780.66;5018036;28;45513;-79
2022/03/03 06:38:47;;;;;;;;;48.50;39.50;;;;;8.84;76.77;100779.81;5018890;28;45506;-80
2022/03/03 06:41:12;;;;;;;;;41.00;37.25;;;;;8.88;76.62;100780.63;5021008;28;45414;-80
2022/03/03 06:43:38;;;;;;;;;43.75;33.25;;;;;8.89;76.84;100779.75;5017301;28;46115;-80
2022/03/03 06:46:04;;;;;;;;;40.25;34.75;;;;;8.87;76.69;100786.81;5017658;28;45407;-79
2022/03/03 06:48:30;;;;;;;;;44.50;39.00;;;;;8.88;77.20;100788.53;5016261;28;45466;-79
2022/03/03 06:50:56;;;;;;;;;42.50;34.75;;;;;8.92;76.94;100784.13;5014900;28;45594;-81
2022/03/03 06:53:28;;;;;;;;;48.75;38.50;;;;;8.94;77.00;100785.84;5016643;28;45384;-80
2022/03/03 06:56:12;;;;;;;;;54.75;43.00;;;;;8.96;77.25;100789.38;5016452;28;45466;-81
2022/03/03 06:58:39;;;;;;;;;43.75;36.00;;;;;8.99;76.84;100794.59;5017337;28;45474;-80
2022/03/03 07:01:09;;;;;;;;;40.25;38.75;;;;;9.01;76.90;100792.81;5018277;28;45351;-80
2022/03/03 07:03:35;;;;;;;;;35.25;31.25;;;;;9.01;76.96;100784.91;5016644;28;46105;-80
2022/03/03 07:06:02;;;;;;;;;37.75;34.50;;;;;9.05;76.80;100794.53;5017374;28;45462;-80
2022/03/03 07:08:27;;;;;;;;;41.00;31.25;;;;;9.05;76.90;100789.28;5017265;28;45324;-80
2022/03/03 07:10:53;;;;;;;;;47.50;36.25;;;;;9.04;76.85;100795.41;5018896;28;45550;-80
2022/03/03 07:13:19;;;;;;;;;40.00;35.50;;;;;9.06;77.64;100791.03;5021501;28;46194;-80
2022/03/03 07:15:52;;;;;;;;;38.00;28.50;;;;;9.05;76.56;100778.72;5015964;28;45443;-80
2022/03/03 07:18:32;;;;;;;;;38.75;34.25;;;;;9.06;76.90;100791.03;5014181;28;45415;-81
2022/03/03 07:21:22;;;;;;;;;35.75;30.75;;;;;9.06;77.22;100796.31;5016368;28;45514;-80
2022/03/03 07:23:57;;;;;;;;;47.25;38.50;;;;;9.04;76.94;100784.88;5015757;28;45418;-80
2022/03/03 07:26:23;;;;;;;;;42.50;35.75;;;;;9.07;77.70;100790.13;5015667;28;45364;-79
2022/03/03 07:28:52;;;;;;;;;31.75;26.00;;;;;9.10;77.34;100791.84;5015363;28;45410;-80
2022/03/03 07:31:22;;;;;;;;;41.50;31.00;;;;;9.09;77.29;100789.25;5015925;28;45351;-79
2022/03/03 07:33:55;;;;;;;;;37.25;34.50;;;;;9.13;77.28;100793.59;5013966;28;46221;-80
2022/03/03 07:36:28;;;;;;;;;36.75;36.25;;;;;9.12;78.06;100794.47;5015603;28;45611;-81
2022/03/03 07:38:59;;;;;;;;;41.50;36.75;;;;;9.17;77.83;100804.09;5015205;28;45343;-80
2022/03/03 07:41:26;;;;;;;;;40.75;35.75;;;;;9.24;77.94;100789.06;5017094;28;45617;-79
2022/03/03 07:43:54;;;;;;;;;42.25;38.50;;;;;9.28;77.20;100790.78;5023277;28;46433;-80
2022/03/03 07:46:21;;;;;;;;;36.75;33.50;;;;;9.27;77.20;100775.84;5017599;28;45375;-81
2022/03/03 07:48:47;;;;;;;;;41.00;37.50;;;;;9.31;76.78;100785.47;5014766;28;45493;-81
2022/03/03 07:51:13;;;;;;;;;35.00;31.00;;;;;9.35;76.39;100789.84;5015324;28;45536;-81
2022/03/03 07:53:39;;;;;;;;;43.00;36.00;;;;;9.40;76.60;100790.66;5015487;28;46413;-80
2022/03/03 07:56:08;;;;;;;;;43.50;34.50;;;;;9.43;76.47;100787.09;5014626;28;45418;-80
2022/03/03 07:58:41;;;;;;;;;38.25;30.00;;;;;9.44;76.80;100775.63;5013493;28;45352;-80
2022/03/03 08:01:09;;;;;;;;;40.75;30.75;;;;;9.49;76.13;100783.50;5015191;28;45390;-81
2022/03/03 08:03:34;;;;;;;;;45.00;34.00;;;;;9.53;75.96;100785.22;5014848;28;45456;-80
2022/03/03 08:06:01;;;;;;;;;47.75;37.00;;;;;9.60;76.42;100787.75;5014928;28;45509;-79
2022/03/03 08:08:29;;;;;;;;;42.00;35.50;;;;;9.63;76.18;100784.22;5015397;28;45391;-80
2022/03/03 08:11:07;;;;;;;;;44.75;39.50;;;;;9.72;75.66;100785.88;5015910;28;45472;-80
2022/03/03 08:13:33;;;;;;;;;45.25;42.00;;;;;9.73;75.63;100782.31;5019787;28;46098;-80
2022/03/03 08:15:59;;;;;;;;;45.50;33.50;;;;;9.80;75.39;100786.63;5021269;28;45466;-80
2022/03/03 08:18:31;;;;;;;;;39.50;35.00;;;;;9.84;75.61;100779.53;5015738;28;45432;-80
2022/03/03 08:21:00;;;;;;;;;38.75;36.00;;;;;9.90;74.91;100782.09;5015125;28;45623;-81
2022/03/03 08:23:26;;;;;;;;;49.00;42.00;;;;;9.98;74.33;100782.88;5015372;28;46204;-80
2022/03/03 08:25:54;;;;;;;;;50.00;41.00;;;;;10.04;74.55;100781.91;5014831;28;45360;-80
2022/03/03 08:28:23;;;;;;;;;42.00;37.00;;;;;10.13;74.62;100784.41;5015274;28;45448;-81
2022/03/03 08:31:00;;;;;;;;;29.50;23.50;;;;;10.23;74.00;100777.22;5014833;28;45420;-80
2022/03/03 08:33:52;;;;;;;;;46.75;36.00;;;;;10.32;73.63;100777.97;5029823;28;46661;-80
2022/03/03 08:36:28;;;;;;;;;47.00;32.50;;;;;10.38;73.34;100774.34;5013070;28;45388;-81
2022/03/03 08:39:01;;;;;;;;;41.00;36.50;;;;;10.45;72.97;100776.00;5015126;28;45384;-80
2022/03/03 08:41:31;;;;;;;;;45.50;39.75;;;;;10.48;73.05;100768.03;5015847;28;45316;-79
2022/03/03 08:44:01;;;;;;;;;41.50;39.00;;;;;10.52;72.99;100758.28;5014924;28;45460;-76
2022/03/03 08:46:31;;;;;;;;;35.25;30.50;;;;;10.56;72.82;100759.09;5018847;28;45387;-76
2022/03/03 08:48:59;;;;;;;;;47.75;39.00;;;;;10.68;72.36;100779.19;5015982;28;45427;-76
2022/03/03 08:51:25;;;;;;;;;51.00;41.50;;;;;10.75;72.56;100783.44;5014942;28;45467;-76
2022/03/03 08:53:51;;;;;;;;;45.00;37.25;;;;;10.76;72.36;100777.25;5012158;28;46991;-75
2022/03/03 08:56:17;;;;;;;;;43.00;36.75;;;;;10.82;71.80;100785.09;5012822;28;45329;-79
2022/03/03 08:58:42;;;;;;;;;41.00;36.25;;;;;10.86;71.91;100785.94;5014659;28;45503;-80
2022/03/03 09:01:08;;;;;;;;;44.75;38.75;;;;;10.90;71.97;100790.25;5013064;28;45595;-79
2022/03/03 09:03:33;;;;;;;;;49.25;37.00;;;;;10.91;71.53;100787.56;5014309;28;46192;-79
2022/03/03 09:06:00;;;;;;;;;45.25;40.00;;;;;10.93;71.87;100787.53;5012547;28;45439;-79
2022/03/03 09:08:26;;;;;;;;;53.25;42.00;;;;;10.97;71.75;100790.09;5014541;28;45437;-80
2022/03/03 09:10:51;;;;;;;;;39.75;34.25;;;;;10.99;71.49;100787.41;5014395;28;45451;-79
2022/03/03 09:13:17;;;;;;;;;36.50;36.50;;;;;11.02;71.19;100790.91;5014021;28;46190;-79
2022/03/03 09:15:43;;;;;;;;;56.00;40.50;;;;;11.07;71.14;100788.16;5017266;28;45490;-75
2022/03/03 09:18:08;;;;;;;;;53.75;43.25;;;;;11.11;70.81;100776.59;5019498;28;45319;-77
2022/03/03 09:20:34;;;;;;;;;49.50;41.75;;;;;11.22;70.90;100791.41;5014259;28;45411;-75
2022/03/03 09:23:00;;;;;;;;;55.75;43.25;;;;;11.29;70.40;100793.91;5013902;28;47878;-76
2022/03/03 09:25:25;;;;;;;;;52.50;43.75;;;;;11.27;70.23;100790.44;5013738;28;45533;-76
2022/03/03 09:27:51;;;;;;;;;47.75;39.50;;;;;11.32;70.09;100793.00;5013428;28;45379;-76
2022/03/03 09:30:18;;;;;;;;;42.00;32.25;;;;;11.35;70.07;100792.91;5013766;28;45712;-76
2022/03/03 09:32:44;;;;;;;;;47.50;37.00;;;;;11.37;69.96;100796.41;5011775;28;47834;-76
2022/03/03 09:35:11;;;;;;;;;53.00;43.00;;;;;11.40;69.74;100790.19;5013108;28;45424;-76
2022/03/03 09:37:37;;;;;;;;;43.00;36.50;;;;;11.43;69.69;100787.47;5012348;28;45534;-76
2022/03/03 09:40:04;;;;;;;;;40.25;35.75;;;;;11.36;69.06;100790.25;5012189;28;45617;-77
2022/03/03 09:42:33;;;;;;;;;44.75;36.00;;;;;11.38;69.55;100787.56;5015862;28;47387;-76
2022/03/03 09:45:00;;;;;;;;;45.75;42.00;;;;;11.41;69.40;100786.66;5016708;28;45445;-76
2022/03/03 09:47:26;;;;;;;;;41.75;37.00;;;;;11.37;69.36;100778.78;5022544;28;45384;-76
2022/03/03 09:49:52;;;;;;;;;45.50;35.00;;;;;11.50;69.31;100771.44;5020524;28;45467;-76
2022/03/03 09:52:19;;;;;;;;;48.25;37.75;;;;;11.72;68.79;100786.84;5048808;28;48111;-76
2022/03/03 09:54:52;;;;;;;;;42.00;39.50;;;;;11.89;68.13;100782.09;5015298;28;45376;-75
2022/03/03 09:57:17;;;;;;;;;44.75;38.50;;;;;12.05;67.44;100781.78;5016594;28;45621;-77
2022/03/03 09:59:44;;;;;;;;;42.50;37.50;;;;;12.07;67.50;100774.66;5016068;28;45397;-76
2022/03/03 10:02:11;;;;;;;;;52.50;42.50;;;;;12.20;67.02;100778.75;5016660;28;46150;-75
2022/03/03 10:04:37;;;;;;;;;38.75;32.25;;;;;12.26;66.67;100777.75;5016888;28;45468;-76
2022/03/03 10:07:09;;;;;;;;;44.50;38.25;;;;;12.33;66.38;100789.97;5017631;28;45458;-75
2022/03/03 10:09:59;;;;;;;;;47.50;38.00;;;;;12.36;66.17;100789.00;5019814;28;45378;-75
2022/03/03 10:12:22;;;;;;;;;48.75;42.75;;;;;12.33;66.13;100783.75;5017286;28;45832;-76
2022/03/03 10:14:48;;;;;;;;;43.75;34.50;;;;;12.39;66.32;100789.81;5016198;28;45357;-75
2022/03/03 10:17:14;;;;;;;;;46.50;43.50;;;;;12.50;65.65;100789.53;5017716;28;45378;-75
2022/03/03 10:19:54;;;;;;;;;47.50;42.50;;;;;12.58;65.58;100784.91;5019647;28;45396;-76
2022/03/03 10:22:25;;;;;;;;;46.75;41.75;;;;;12.62;65.23;100775.97;5018741;28;45934;-75
2022/03/03 10:24:51;;;;;;;;;49.25;47.25;;;;;12.66;65.31;100775.91;5016771;28;45461;-75
2022/03/03 10:27:18;;;;;;;;;47.50;43.00;;;;;12.70;65.24;100777.56;5015981;28;45504;-76
2022/03/03 10:29:48;;;;;;;;;46.50;39.50;;;;;12.66;65.34;100775.91;5016036;28;45336;-76
2022/03/03 10:32:23;;;;;;;;;47.50;39.50;;;;;12.70;64.99;100774.91;5016060;28;45493;-75
2022/03/03 10:34:49;;;;;;;;;40.75;32.75;;;;;12.75;64.55;100775.66;5016218;28;45315;-76
2022/03/03 10:37:22;;;;;;;;;40.25;32.00;;;;;12.80;64.52;100768.47;5016242;28;45427;-80
2022/03/03 10:39:55;;;;;;;;;31.75;23.75;;;;;12.87;63.24;100771.81;5016550;28;45546;-79
2022/03/03 10:42:24;;;;;;;;;36.25;34.50;;;;;12.86;63.66;100768.31;5015819;28;46255;-80
2022/03/03 10:45:04;;;;;;;;;45.75;36.25;;;;;12.87;63.27;100764.72;5016713;28;45361;-80
2022/03/03 10:47:29;;;;;;;;;27.75;23.50;;;;;12.93;63.09;100776.97;5017625;28;45507;-80
2022/03/03 10:49:57;;;;;;;;;44.25;40.00;;;;;12.93;63.41;100763.69;5023741;28;45415;-80
2022/03/03 10:52:25;;;;;;;;;49.75;45.50;;;;;13.05;62.75;100766.00;5016280;28;46321;-80
2022/03/03 10:54:53;;;;;;;;;51.50;40.75;;;;;13.15;63.01;100766.66;5014532;28;45904;-80
2022/03/03 10:57:39;;;;;;;;;45.00;38.00;;;;;13.26;62.30;100759.25;5015807;28;45459;-80
2022/03/03 11:00:14;;;;;;;;;52.50;41.50;;;;;13.36;62.09;100753.72;5015934;28;45344;-76
2022/03/03 11:02:48;;;;;;;;;49.75;41.75;;;;;13.46;62.09;100756.03;5015574;28;46136;-76
2022/03/03 11:05:15;;;;;;;;;40.50;37.50;;;;;13.51;61.19;100761.22;5015438;28;45550;-77
2022/03/03 11:07:42;;;;;;;;;41.50;35.50;;;;;13.48;61.19;100763.97;5014626;28;45476;-79
2022/03/03 11:10:14;;;;;;;;;30.50;27.75;;;;;13.47;60.99;100754.28;5015883;28;45653;-77
2022/03/03 11:12:41;;;;;;;;;44.25;37.75;;;;;13.44;60.60;100751.72;5015353;28;45496;-77
2022/03/03 11:15:10;;;;;;;;;37.50;34.00;;;;;13.47;60.62;100754.28;5015368;28;45534;-76
2022/03/03 11:17:36;;;;;;;;;43.25;38.25;;;;;13.47;60.60;100759.59;5016688;28;45446;-75